Time;durP1;ratioP1;P1;durP2;ratioP2;P2;SDS_P1;SDS_P2;PMS_P1;PMS_P2;Temp;Humidity;BMP_temperature;BMP_pressure;BME280_temperature;BME280_humidity;BME280_pressure;Samples;Min_cycle;Max_cycle;Signal;HPM_P1;HPM_P2
2022/01/11 00:00:23;;;;;;;25.58;16.65;;;2.60;99.90;;;;;;5000442;28;20053;-61
2022/01/11 00:02:50;;;;;;;25.25;17.55;;;2.70;99.90;;;;;;5017951;28;20583;-61
2022/01/11 00:05:26;;;;;;;27.83;18.13;;;2.80;99.90;;;;;;5017859;28;20488;-61
2022/01/11 00:07:53;;;;;;;26.90;18.27;;;2.70;99.90;;;;;;5014530;28;20053;-61
2022/01/11 00:10:28;;;;;;;24.05;17.35;;;2.70;99.90;;;;;;5007559;28;20038;-61
2022/01/11 00:12:55;;;;;;;25.10;16.98;;;2.80;99.90;;;;;;5020117;28;20045;-61
2022/01/11 00:15:21;;;;;;;28.50;17.25;;;2.70;99.90;;;;;;5011442;28;20412;-61
2022/01/11 00:17:46;;;;;;;25.02;17.25;;;2.70;99.90;;;;;;5019652;28;20041;-61
2022/01/11 00:20:15;;;;;;;27.70;17.40;;;2.70;99.90;;;;;;5018423;28;20057;-61
2022/01/11 00:25:36;;;;;;;23.75;15.27;;;2.70;99.90;;;;;;4983915;28;20436;-61
2022/01/11 00:28:03;;;;;;;25.92;16.15;;;2.70;99.90;;;;;;5017958;28;20046;-61
2022/01/11 00:30:33;;;;;;;22.98;16.75;;;2.70;99.90;;;;;;5020744;28;20125;-61
2022/01/11 00:33:02;;;;;;;23.30;17.42;;;2.70;99.90;;;;;;5021135;28;20052;-61
2022/01/11 00:35:38;;;;;;;23.13;14.95;;;2.70;99.90;;;;;;5012088;28;20049;-61
2022/01/11 00:38:03;;;;;;;24.17;16.65;;;2.70;99.90;;;;;;5007414;28;20661;-61
2022/01/11 00:40:29;;;;;;;24.15;16.02;;;2.70;99.90;;;;;;4991854;28;20133;-61
2022/01/11 00:42:59;;;;;;;23.27;15.73;;;2.70;99.90;;;;;;5004571;28;20052;-61
2022/01/11 00:45:26;;;;;;;21.88;14.15;;;2.70;99.90;;;;;;5001529;28;20046;-61
2022/01/11 00:47:52;;;;;;;22.17;15.98;;;2.60;99.90;;;;;;5022233;28;20044;-62
2022/01/11 00:50:18;;;;;;;25.95;16.15;;;2.60;99.90;;;;;;5015799;28;20081;-61
2022/01/11 00:52:44;;;;;;;25.95;15.57;;;2.60;99.90;;;;;;5012165;28;20085;-62
2022/01/11 00:55:10;;;;;;;22.40;14.85;;;2.60;99.90;;;;;;5013080;28;20053;-61
2022/01/11 00:57:36;;;;;;;25.88;16.02;;;2.60;99.90;;;;;;5016661;28;20058;-62
2022/01/11 01:00:11;;;;;;;22.95;14.10;;;2.60;99.90;;;;;;5025477;28;20049;-61
2022/01/11 01:02:39;;;;;;;21.70;13.60;;;2.60;99.90;;;;;;5012354;28;20052;-61
2022/01/11 01:05:05;;;;;;;22.38;16.00;;;2.70;99.90;;;;;;5013668;28;20045;-61
2022/01/11 01:07:31;;;;;;;24.13;15.32;;;2.60;99.90;;;;;;5026400;28;20060;-61
2022/01/11 01:10:13;;;;;;;26.70;15.43;;;2.60;99.90;;;;;;5020224;28;20482;-62
2022/01/11 01:12:39;;;;;;;18.35;13.88;;;2.60;99.90;;;;;;5022280;28;20041;-61
2022/01/11 01:15:05;;;;;;;21.00;14.70;;;2.60;99.90;;;;;;5022013;28;20080;-61
2022/01/11 01:17:31;;;;;;;24.70;15.88;;;2.60;99.90;;;;;;5013358;28;20046;-61
2022/01/11 01:19:57;;;;;;;22.67;15.88;;;2.60;99.90;;;;;;5024121;28;20045;-61
2022/01/11 01:22:22;;;;;;;21.77;15.75;;;2.60;99.90;;;;;;5025642;28;20041;-61
2022/01/11 01:24:48;;;;;;;24.58;15.95;;;2.50;99.90;;;;;;5005066;28;20049;-61
2022/01/11 01:27:15;;;;;;;19.45;14.40;;;2.60;99.90;;;;;;5010496;28;20077;-61
2022/01/11 01:29:41;;;;;;;22.13;15.45;;;2.50;99.90;;;;;;5027759;28;20527;-61
2022/01/11 01:32:08;;;;;;;27.52;16.15;;;2.60;99.90;;;;;;5010361;28;20038;-61
2022/01/11 01:34:33;;;;;;;24.23;16.00;;;2.60;99.90;;;;;;5010266;28;20086;-61
2022/01/11 01:36:59;;;;;;;22.98;15.65;;;2.60;99.90;;;;;;5019702;28;20584;-61
2022/01/11 01:39:25;;;;;;;24.13;14.98;;;2.50;99.90;;;;;;5017256;28;20058;-61
2022/01/11 01:41:51;;;;;;;28.92;17.42;;;2.60;99.90;;;;;;5018191;28;20502;-61
2022/01/11 01:44:17;;;;;;;26.13;14.93;;;2.50;99.90;;;;;;5011254;28;20046;-61
2022/01/11 01:46:42;;;;;;;27.33;15.77;;;2.60;99.90;;;;;;5011224;28;20095;-61
2022/01/11 01:49:15;;;;;;;23.13;15.90;;;2.60;99.90;;;;;;5014004;28;20453;-61
2022/01/11 01:51:40;;;;;;;30.08;14.60;;;2.60;99.90;;;;;;5022167;28;20080;-61
2022/01/11 01:54:06;;;;;;;28.75;16.63;;;2.60;99.90;;;;;;5013160;28;20466;-61
2022/01/11 01:56:33;;;;;;;24.65;15.80;;;2.60;99.90;;;;;;5018353;28;20034;-61
2022/01/11 01:58:58;;;;;;;21.80;15.02;;;2.50;99.90;;;;;;5010318;28;20489;-61
2022/01/11 02:01:26;;;;;;;23.58;16.25;;;2.60;99.90;;;;;;5026260;28;20091;-61
2022/01/11 02:03:51;;;;;;;26.05;15.95;;;2.60;99.90;;;;;;5015518;28;20034;-61
2022/01/11 02:06:19;;;;;;;25.50;14.43;;;2.70;99.90;;;;;;5024655;28;20390;-61
2022/01/11 02:08:48;;;;;;;27.52;16.40;;;2.60;99.90;;;;;;5028477;28;20164;-61
2022/01/11 02:11:19;;;;;;;25.20;14.57;;;2.60;99.90;;;;;;5028143;28;20049;-61
2022/01/11 02:13:46;;;;;;;25.85;15.57;;;2.60;99.90;;;;;;5021332;28;20078;-61
2022/01/11 02:16:13;;;;;;;31.27;16.80;;;2.60;99.90;;;;;;5021797;28;20080;-61
2022/01/11 02:18:41;;;;;;;29.88;14.73;;;2.60;99.90;;;;;;5019806;28;20056;-61
2022/01/11 02:21:07;;;;;;;22.65;15.68;;;2.60;99.90;;;;;;5021531;28;20037;-61
2022/01/11 02:23:32;;;;;;;22.42;14.57;;;2.60;99.90;;;;;;5012517;28;20052;-61
2022/01/11 02:25:59;;;;;;;25.65;15.35;;;2.60;99.90;;;;;;5020637;28;20096;-61
2022/01/11 02:28:26;;;;;;;30.75;17.23;;;2.60;99.90;;;;;;5018130;28;20133;-61
2022/01/11 02:30:53;;;;;;;25.33;15.93;;;2.60;99.90;;;;;;5020507;28;20042;-61
2022/01/11 02:33:43;;;;;;;27.35;16.40;;;2.50;99.90;;;;;;5019281;28;20052;-61
2022/01/11 02:36:12;;;;;;;26.35;15.05;;;2.50;99.90;;;;;;5023263;28;20442;-61
2022/01/11 02:38:38;;;;;;;25.15;15.43;;;2.50;99.90;;;;;;5022874;28;20052;-61
2022/01/11 02:41:04;;;;;;;29.10;15.60;;;2.60;99.90;;;;;;5015829;28;20391;-61
2022/01/11 02:43:30;;;;;;;27.02;15.93;;;2.60;99.90;;;;;;5009754;28;20083;-61
2022/01/11 02:45:58;;;;;;;23.92;15.75;;;2.60;99.90;;;;;;5016338;28;20045;-62
2022/01/11 02:48:24;;;;;;;29.85;16.58;;;2.60;99.90;;;;;;5025826;28;20046;-61
2022/01/11 02:50:50;;;;;;;31.00;17.17;;;2.60;99.90;;;;;;5013632;28;20099;-61
2022/01/11 02:53:17;;;;;;;29.33;15.70;;;2.50;99.90;;;;;;5027976;28;20059;-61
2022/01/11 02:55:43;;;;;;;24.65;15.25;;;2.50;99.90;;;;;;5027649;28;20041;-61
2022/01/11 02:58:11;;;;;;;26.08;15.73;;;2.60;99.90;;;;;;5012424;28;20038;-61
2022/01/11 03:00:38;;;;;;;29.92;16.85;;;2.60;99.90;;;;;;5020406;28;20045;-61
2022/01/11 03:03:23;;;;;;;28.10;15.60;;;2.60;99.90;;;;;;5028319;28;20041;-61
2022/01/11 03:05:53;;;;;;;25.42;14.82;;;2.60;99.90;;;;;;5018364;28;20405;-61
2022/01/11 03:08:20;;;;;;;36.70;17.73;;;2.60;99.90;;;;;;5008396;28;20053;-61
2022/01/11 03:10:47;;;;;;;26.58;15.45;;;2.60;99.90;;;;;;5020181;28;20053;-61
2022/01/11 03:13:14;;;;;;;27.80;17.20;;;2.60;99.90;;;;;;5022262;28;20049;-61
2022/01/11 03:15:41;;;;;;;30.17;15.73;;;2.50;99.90;;;;;;5015980;28;20040;-61
2022/01/11 03:18:08;;;;;;;28.15;16.38;;;2.60;99.90;;;;;;5010945;28;20037;-61
2022/01/11 03:20:35;;;;;;;31.88;17.92;;;2.60;99.90;;;;;;5018618;28;20191;-61
2022/01/11 03:23:01;;;;;;;28.63;17.20;;;2.60;99.90;;;;;;5012703;28;20068;-61
2022/01/11 03:25:26;;;;;;;31.67;16.80;;;2.70;99.90;;;;;;5010743;28;20550;-61
2022/01/11 03:27:52;;;;;;;29.08;16.92;;;2.70;99.90;;;;;;5020041;28;20045;-61
2022/01/11 03:30:18;;;;;;;31.05;17.45;;;2.60;99.90;;;;;;5014360;28;20052;-61
2022/01/11 03:32:44;;;;;;;30.08;17.30;;;2.60;99.90;;;;;;5014696;28;20045;-61
2022/01/11 03:35:11;;;;;;;34.05;16.65;;;2.60;99.90;;;;;;5019414;28;20390;-61
2022/01/11 03:37:38;;;;;;;38.20;18.15;;;2.60;99.90;;;;;;5010158;28;20060;-61
2022/01/11 03:40:06;;;;;;;30.98;19.23;;;2.60;99.90;;;;;;5007939;28;20055;-61
2022/01/11 03:42:31;;;;;;;37.97;19.85;;;2.60;99.90;;;;;;5016639;28;20145;-61
2022/01/11 03:44:57;;;;;;;37.10;19.95;;;2.60;99.90;;;;;;5007268;28;20132;-61
2022/01/11 03:47:23;;;;;;;32.78;20.10;;;2.60;99.90;;;;;;5015089;28;20057;-61
2022/01/11 03:49:48;;;;;;;40.92;19.50;;;2.60;99.90;;;;;;5020509;28;20132;-61
2022/01/11 03:52:14;;;;;;;38.25;19.15;;;2.60;99.90;;;;;;5027961;28;20045;-61
2022/01/11 03:54:51;;;;;;;34.58;18.55;;;2.60;99.90;;;;;;5022400;28;20044;-61
2022/01/11 03:57:17;;;;;;;36.13;20.30;;;2.50;99.90;;;;;;5010349;28;20081;-61
2022/01/11 03:59:43;;;;;;;31.05;19.90;;;2.50;99.90;;;;;;5025153;28;20065;-61
2022/01/11 04:02:09;;;;;;;30.60;18.33;;;2.50;99.90;;;;;;5011031;28;20511;-61
2022/01/11 04:04:34;;;;;;;35.08;18.90;;;2.40;99.90;;;;;;5026462;28;20056;-61
2022/01/11 04:07:00;;;;;;;34.72;19.33;;;2.40;99.90;;;;;;5009750;28;20034;-61
2022/01/11 04:09:26;;;;;;;39.33;20.48;;;2.40;99.90;;;;;;5008289;28;20172;-61
2022/01/11 04:11:52;;;;;;;31.33;17.70;;;2.40;99.90;;;;;;5010854;28;20092;-61
2022/01/11 04:14:18;;;;;;;31.88;18.50;;;2.40;99.90;;;;;;5018763;28;20045;-61
2022/01/11 04:16:43;;;;;;;31.88;18.35;;;2.40;99.90;;;;;;5009306;28;20444;-61
2022/01/11 04:19:09;;;;;;;37.47;18.17;;;2.40;99.90;;;;;;4990915;28;20057;-61
2022/01/11 04:21:35;;;;;;;40.58;18.83;;;2.40;99.90;;;;;;4997744;28;20057;-61
2022/01/11 04:24:02;;;;;;;33.60;18.90;;;2.40;99.90;;;;;;5031139;28;20091;-61
2022/01/11 04:26:28;;;;;;;27.52;18.33;;;2.30;99.90;;;;;;5023756;28;20046;-61
2022/01/11 04:28:53;;;;;;;33.72;18.10;;;2.40;99.90;;;;;;5014041;28;20497;-61
2022/01/11 04:31:19;;;;;;;28.75;17.50;;;2.40;99.90;;;;;;5018199;28;20045;-61
2022/01/11 04:33:45;;;;;;;30.02;16.88;;;2.40;99.90;;;;;;5018756;28;20046;-61
2022/01/11 04:36:12;;;;;;;26.35;16.73;;;2.40;99.90;;;;;;5028744;28;20071;-61
2022/01/11 04:38:39;;;;;;;40.45;20.70;;;2.40;99.90;;;;;;5027799;28;20046;-61
2022/01/11 04:41:05;;;;;;;34.97;19.08;;;2.40;99.90;;;;;;5018390;28;20092;-61
2022/01/11 04:43:30;;;;;;;43.58;21.02;;;2.30;99.90;;;;;;5011639;28;20486;-61
2022/01/11 04:45:57;;;;;;;41.75;18.77;;;2.40;99.90;;;;;;5012195;28;20053;-61
2022/01/11 04:48:22;;;;;;;38.50;19.30;;;2.40;99.90;;;;;;5012189;28;20038;-61
2022/01/11 04:50:48;;;;;;;37.75;19.60;;;2.40;99.90;;;;;;4993983;28;20053;-61
2022/01/11 04:53:14;;;;;;;41.20;20.48;;;2.40;99.90;;;;;;5015260;28;20077;-61
2022/01/11 04:55:40;;;;;;;39.35;19.13;;;2.40;99.90;;;;;;5007048;28;20529;-61
2022/01/11 04:58:06;;;;;;;39.30;20.15;;;2.50;99.90;;;;;;5029517;28;20140;-61
2022/01/11 05:00:32;;;;;;;34.15;19.13;;;2.50;99.90;;;;;;5028164;28;20128;-61
2022/01/11 05:02:59;;;;;;;34.88;19.55;;;2.40;99.90;;;;;;5029524;28;20041;-61
2022/01/11 05:05:27;;;;;;;35.90;19.65;;;2.40;99.90;;;;;;5018695;28;20096;-61
2022/01/11 05:07:53;;;;;;;39.30;19.40;;;2.40;99.90;;;;;;5010893;28;20033;-61
2022/01/11 05:10:19;;;;;;;35.05;18.58;;;2.40;99.90;;;;;;5018857;28;20050;-61
2022/01/11 05:12:45;;;;;;;37.75;19.13;;;2.40;99.90;;;;;;5030385;28;20050;-61
2022/01/11 05:15:12;;;;;;;52.97;19.65;;;2.40;99.90;;;;;;5026060;28;20689;-61
2022/01/11 05:17:38;;;;;;;36.42;19.88;;;2.40;99.90;;;;;;5013603;28;20049;-61
2022/01/11 05:20:05;;;;;;;41.55;19.58;;;2.30;99.90;;;;;;5024603;28;20045;-61
2022/01/11 05:22:31;;;;;;;35.22;20.48;;;2.30;99.90;;;;;;5026253;28;20042;-61
2022/01/11 05:24:57;;;;;;;37.72;19.45;;;2.30;99.90;;;;;;5015312;28;20408;-61
2022/01/11 05:27:22;;;;;;;32.58;18.50;;;2.20;99.90;;;;;;5020862;28;20052;-61
2022/01/11 05:29:48;;;;;;;38.08;19.27;;;2.30;99.90;;;;;;5029520;28;20052;-61
2022/01/11 05:32:14;;;;;;;38.30;19.38;;;2.30;99.90;;;;;;5025402;28;20498;-61
2022/01/11 05:34:40;;;;;;;42.35;20.30;;;2.20;99.90;;;;;;5029708;28;20060;-61
2022/01/11 05:37:06;;;;;;;40.88;19.27;;;2.20;99.90;;;;;;5011111;28;20046;-61
2022/01/11 05:39:31;;;;;;;34.72;18.83;;;2.20;99.90;;;;;;5011573;28;20092;-61
2022/01/11 05:41:59;;;;;;;38.53;20.63;;;2.20;99.90;;;;;;5018025;28;20050;-61
2022/01/11 05:44:25;;;;;;;32.75;19.15;;;2.20;99.90;;;;;;5028772;28;20049;-61
2022/01/11 05:46:51;;;;;;;38.63;19.27;;;2.20;99.90;;;;;;5026229;28;20460;-61
2022/01/11 05:49:17;;;;;;;39.28;19.90;;;2.20;99.90;;;;;;5016857;28;20041;-61
2022/01/11 05:51:42;;;;;;;36.58;19.45;;;2.20;99.90;;;;;;5026496;28;20037;-61
2022/01/11 05:54:08;;;;;;;36.03;18.90;;;2.10;99.90;;;;;;5023447;28;20041;-61
2022/01/11 05:56:34;;;;;;;43.63;20.92;;;2.10;99.90;;;;;;5018138;28;20037;-61
2022/01/11 05:58:59;;;;;;;41.22;20.38;;;2.10;99.90;;;;;;5003281;28;20046;-61
2022/01/11 06:01:25;;;;;;;42.42;20.95;;;2.10;99.90;;;;;;5029833;28;20140;-61
2022/01/11 06:03:50;;;;;;;37.63;21.35;;;2.10;99.90;;;;;;5026403;28;20041;-61
2022/01/11 06:06:16;;;;;;;42.08;20.95;;;2.10;99.90;;;;;;5013704;28;20072;-61
2022/01/11 06:08:41;;;;;;;35.25;20.15;;;2.10;99.90;;;;;;5009476;28;20099;-61
2022/01/11 06:11:07;;;;;;;43.92;20.70;;;2.10;99.90;;;;;;5029362;28;20037;-61
2022/01/11 06:13:33;;;;;;;37.20;19.95;;;2.10;99.90;;;;;;5015972;28;20042;-61
2022/01/11 06:15:59;;;;;;;40.22;20.90;;;2.10;99.90;;;;;;5022997;28;20087;-61
2022/01/11 06:18:25;;;;;;;36.08;20.58;;;2.20;99.90;;;;;;5014648;28;20069;-61
2022/01/11 06:20:50;;;;;;;45.33;21.40;;;2.10;99.90;;;;;;5011192;28;20504;-61
2022/01/11 06:23:16;;;;;;;40.42;21.98;;;2.10;99.90;;;;;;5027082;28;20437;-61
2022/01/11 06:25:41;;;;;;;37.20;21.10;;;2.10;99.90;;;;;;5029303;28;20076;-61
2022/01/11 06:28:07;;;;;;;46.95;21.05;;;2.20;99.90;;;;;;5020903;28;20053;-61
2022/01/11 06:30:33;;;;;;;43.03;20.25;;;2.20;99.90;;;;;;5013207;28;20104;-62
2022/01/11 06:32:58;;;;;;;42.97;21.58;;;2.20;99.90;;;;;;5016440;28;20038;-61
2022/01/11 06:35:25;;;;;;;36.20;20.60;;;2.20;99.90;;;;;;5014731;28;20054;-61
2022/01/11 06:37:51;;;;;;;34.03;21.02;;;2.20;99.90;;;;;;5014504;28;20045;-61
2022/01/11 06:40:19;;;;;;;37.67;22.45;;;2.20;99.90;;;;;;5027113;28;20045;-61
2022/01/11 06:42:46;;;;;;;46.55;22.55;;;2.10;99.90;;;;;;5028486;28;20033;-62
2022/01/11 06:45:12;;;;;;;38.03;20.73;;;2.10;99.90;;;;;;5023563;28;20408;-61
2022/01/11 06:47:39;;;;;;;42.70;22.13;;;2.10;99.90;;;;;;5018199;28;20385;-61
2022/01/11 06:50:05;;;;;;;35.80;20.40;;;2.00;99.90;;;;;;5013803;28;20037;-61
2022/01/11 06:52:30;;;;;;;38.30;22.33;;;2.00;99.90;;;;;;5014468;28;20120;-61
2022/01/11 06:54:56;;;;;;;41.85;22.02;;;2.10;99.90;;;;;;5016742;28;20629;-61
2022/01/11 06:57:22;;;;;;;36.65;19.88;;;2.00;99.90;;;;;;5027094;28;20128;-61
2022/01/11 06:59:47;;;;;;;36.63;20.17;;;2.00;99.90;;;;;;5026878;28;20134;-61
2022/01/11 07:02:13;;;;;;;30.92;19.45;;;2.00;99.90;;;;;;5023157;28;20037;-61
2022/01/11 07:04:38;;;;;;;42.97;19.90;;;2.00;99.90;;;;;;5028376;28;20482;-62
2022/01/11 07:07:05;;;;;;;42.25;23.17;;;2.00;99.90;;;;;;5028808;28;20046;-62
2022/01/11 07:09:31;;;;;;;35.95;20.67;;;2.00;99.90;;;;;;5027944;28;20371;-62
2022/01/11 07:11:57;;;;;;;40.92;23.15;;;2.00;99.90;;;;;;5018777;28;20092;-62
2022/01/11 07:14:22;;;;;;;38.60;22.45;;;2.00;99.90;;;;;;5028060;28;20033;-62
2022/01/11 07:16:48;;;;;;;37.25;21.27;;;2.00;99.90;;;;;;5017789;28;20046;-62
2022/01/11 07:19:18;;;;;;;36.00;22.15;;;2.00;99.90;;;;;;5008994;28;20073;-62
2022/01/11 07:21:46;;;;;;;44.47;23.35;;;2.00;99.90;;;;;;5015869;28;20041;-61
2022/01/11 07:24:14;;;;;;;39.78;22.17;;;2.00;99.90;;;;;;5007931;28;20133;-62
2022/01/11 07:26:40;;;;;;;41.95;21.83;;;2.00;99.90;;;;;;5023913;28;20046;-62
2022/01/11 07:29:07;;;;;;;39.67;22.85;;;2.00;99.90;;;;;;5027257;28;20058;-62
2022/01/11 07:31:37;;;;;;;36.42;21.42;;;2.00;99.90;;;;;;5015895;28;20045;-62
2022/01/11 07:34:03;;;;;;;38.47;22.27;;;2.00;99.90;;;;;;5007920;28;20038;-62
2022/01/11 07:36:29;;;;;;;37.05;21.85;;;2.00;99.90;;;;;;4991995;28;20053;-62
2022/01/11 07:38:55;;;;;;;41.92;24.52;;;2.00;99.90;;;;;;5008478;28;20046;-62
2022/01/11 07:41:21;;;;;;;36.28;23.50;;;2.00;99.90;;;;;;5009603;28;20050;-61
2022/01/11 07:43:46;;;;;;;39.25;22.75;;;2.10;99.90;;;;;;5019861;28;20052;-59
2022/01/11 07:46:12;;;;;;;40.55;23.15;;;2.10;99.90;;;;;;5022413;28;20100;-60
2022/01/11 07:48:37;;;;;;;39.78;23.45;;;2.10;99.90;;;;;;5027348;28;20381;-59
2022/01/11 07:51:03;;;;;;;43.72;23.83;;;2.10;99.90;;;;;;4995311;28;20046;-60
2022/01/11 07:53:29;;;;;;;39.03;24.50;;;2.00;99.90;;;;;;5008275;28;20104;-60
2022/01/11 07:55:55;;;;;;;42.60;25.00;;;2.00;99.90;;;;;;5014796;28;20081;-60
2022/01/11 07:58:20;;;;;;;38.83;23.88;;;2.00;99.90;;;;;;5022335;28;20049;-60
2022/01/11 08:00:46;;;;;;;39.03;24.05;;;2.00;99.90;;;;;;5008493;28;20158;-60
2022/01/11 08:03:12;;;;;;;40.85;24.15;;;2.00;99.90;;;;;;5022516;28;20042;-60
2022/01/11 08:05:37;;;;;;;44.92;26.95;;;2.00;99.90;;;;;;5008665;28;20558;-60
2022/01/11 08:08:04;;;;;;;44.42;25.55;;;2.00;99.90;;;;;;5025873;28;20560;-60
2022/01/11 08:10:30;;;;;;;43.70;25.23;;;2.10;99.90;;;;;;5023616;28;20045;-60
2022/01/11 08:12:55;;;;;;;41.15;25.05;;;2.00;99.90;;;;;;5008674;28;20176;-60
2022/01/11 08:15:21;;;;;;;40.75;25.08;;;2.00;99.90;;;;;;5026911;28;20072;-60
2022/01/11 08:17:47;;;;;;;42.35;24.88;;;2.00;99.90;;;;;;5025113;28;20401;-60
2022/01/11 08:20:14;;;;;;;40.67;24.95;;;2.10;99.90;;;;;;4996319;28;20054;-60
2022/01/11 08:22:39;;;;;;;38.58;24.23;;;2.10;99.90;;;;;;5008275;28;20038;-60
2022/01/11 08:25:06;;;;;;;41.15;23.42;;;2.10;99.90;;;;;;4993084;28;20050;-60
2022/01/11 08:27:33;;;;;;;40.92;24.05;;;2.10;99.90;;;;;;5007390;28;20037;-60
2022/01/11 08:29:59;;;;;;;37.15;23.52;;;2.10;99.90;;;;;;5020999;28;20497;-60
2022/01/11 08:32:25;;;;;;;36.85;22.75;;;2.10;99.90;;;;;;5025950;28;20043;-60
2022/01/11 08:34:51;;;;;;;39.22;23.42;;;2.10;99.90;;;;;;5007823;28;20050;-61
2022/01/11 08:37:17;;;;;;;40.22;23.35;;;2.00;99.90;;;;;;5007774;28;20042;-60
2022/01/11 08:39:43;;;;;;;38.67;23.60;;;2.10;99.90;;;;;;5008689;28;20050;-60
2022/01/11 08:42:12;;;;;;;48.75;26.25;;;2.00;99.90;;;;;;5017557;28;20428;-59
2022/01/11 08:44:39;;;;;;;41.78;23.10;;;2.10;99.90;;;;;;5026682;28;20055;-60
2022/01/11 08:47:05;;;;;;;47.53;25.65;;;2.10;99.90;;;;;;5007161;28;20099;-60
2022/01/11 08:49:30;;;;;;;40.70;25.02;;;2.10;99.90;;;;;;5016927;28;20061;-59
2022/01/11 08:51:56;;;;;;;42.60;24.77;;;2.10;99.90;;;;;;5010114;28;20543;-60
2022/01/11 08:54:24;;;;;;;48.15;25.83;;;2.20;99.90;;;;;;5010694;28;20088;-60
2022/01/11 08:56:53;;;;;;;40.70;23.90;;;2.20;99.90;;;;;;5022284;28;20108;-60
2022/01/11 08:59:18;;;;;;;45.33;26.05;;;2.10;99.90;;;;;;5012895;28;20514;-60
2022/01/11 09:01:44;;;;;;;40.05;23.90;;;2.10;99.90;;;;;;5014622;28;20053;-60
2022/01/11 09:04:10;;;;;;;41.72;25.85;;;2.00;99.90;;;;;;5007072;28;20053;-60
2022/01/11 09:06:35;;;;;;;36.97;23.85;;;2.20;99.90;;;;;;5022297;28;20042;-59
2022/01/11 09:09:03;;;;;;;43.40;24.15;;;2.10;99.90;;;;;;5018758;28;20477;-59
2022/01/11 09:11:28;;;;;;;42.97;25.10;;;2.00;99.90;;;;;;5011217;28;20077;-59
2022/01/11 09:13:54;;;;;;;43.20;25.33;;;2.10;99.90;;;;;;5027263;28;20529;-60
2022/01/11 09:16:22;;;;;;;46.42;26.40;;;2.10;99.90;;;;;;5030117;28;20056;-59
2022/01/11 09:18:49;;;;;;;45.17;27.30;;;2.00;99.90;;;;;;5030268;28;20438;-59
2022/01/11 09:21:15;;;;;;;46.40;26.65;;;2.10;99.90;;;;;;5013858;28;20757;-59
2022/01/11 09:23:40;;;;;;;44.13;26.38;;;2.00;99.90;;;;;;5011473;28;20046;-59
2022/01/11 09:26:06;;;;;;;47.58;27.63;;;2.10;99.90;;;;;;5012078;28;20095;-60
2022/01/11 09:28:32;;;;;;;43.88;26.13;;;2.10;99.90;;;;;;5025860;28;20137;-59
2022/01/11 09:30:58;;;;;;;43.97;25.58;;;2.10;99.90;;;;;;5018327;28;20128;-59
2022/01/11 09:33:24;;;;;;;53.15;28.45;;;2.10;99.90;;;;;;5012116;28;20120;-59
2022/01/11 09:35:50;;;;;;;48.50;27.55;;;2.10;99.90;;;;;;5027437;28;20045;-59
2022/01/11 09:38:15;;;;;;;52.50;26.77;;;2.10;99.90;;;;;;5010667;28;20050;-60
2022/01/11 09:40:41;;;;;;;46.40;26.75;;;2.10;99.90;;;;;;5012679;28;20778;-59
2022/01/11 09:43:07;;;;;;;53.72;27.65;;;2.10;99.90;;;;;;5015412;28;20413;-59
2022/01/11 09:45:33;;;;;;;47.42;28.35;;;2.10;99.90;;;;;;5013569;28;20060;-59
2022/01/11 09:47:59;;;;;;;50.30;27.65;;;2.10;99.90;;;;;;4992690;28;20129;-60
2022/01/11 09:50:24;;;;;;;47.22;27.67;;;2.10;99.90;;;;;;5010254;28;20053;-59
2022/01/11 09:52:51;;;;;;;48.95;28.75;;;2.20;99.90;;;;;;5029878;28;20030;-60
2022/01/11 09:55:18;;;;;;;48.50;28.23;;;2.10;99.90;;;;;;5030470;28;20049;-60
2022/01/11 09:57:43;;;;;;;42.05;25.45;;;2.20;99.90;;;;;;5003606;28;20073;-60
2022/01/11 10:00:11;;;;;;;52.10;29.20;;;2.20;99.90;;;;;;5009730;28;20042;-60
2022/01/11 10:02:37;;;;;;;54.50;30.40;;;2.20;99.90;;;;;;5026622;28;20042;-62
2022/01/11 10:05:06;;;;;;;57.83;29.63;;;2.20;99.90;;;;;;5028699;28;20610;-61
2022/01/11 10:07:35;;;;;;;44.47;27.33;;;2.30;99.90;;;;;;5026891;28;20053;-61
2022/01/11 10:10:01;;;;;;;50.28;27.25;;;2.30;99.90;;;;;;5016185;28;20138;-61
2022/01/11 10:12:29;;;;;;;48.88;28.45;;;2.30;99.90;;;;;;5010311;28;20046;-62
2022/01/11 10:14:57;;;;;;;50.78;28.73;;;2.30;99.90;;;;;;5025434;28;20073;-62
2022/01/11 10:17:28;;;;;;;55.47;30.42;;;2.40;99.90;;;;;;5029150;28;20116;-61
2022/01/11 10:20:16;;;;;;;51.03;31.25;;;2.30;99.90;;;;;;5000204;28;20061;-60
2022/01/11 10:23:00;;;;;;;49.80;29.20;;;2.40;99.90;;;;;;5009687;28;20050;-60
2022/01/11 10:25:26;;;;;;;52.17;28.67;;;2.30;99.90;;;;;;5010394;28;20048;-60
2022/01/11 10:27:58;;;;;;;48.72;28.15;;;2.30;99.90;;;;;;5007055;28;20076;-61
2022/01/11 10:30:25;;;;;;;46.08;29.65;;;2.30;99.90;;;;;;5022976;28;20065;-60
2022/01/11 10:32:53;;;;;;;52.15;28.80;;;2.40;99.90;;;;;;5010074;28;20485;-61
2022/01/11 10:35:29;;;;;;;44.92;27.20;;;2.40;99.90;;;;;;5025274;28;20071;-61
2022/01/11 10:37:57;;;;;;;55.03;30.95;;;2.50;99.90;;;;;;5029198;28;20084;-61
2022/01/11 10:40:36;;;;;;;46.33;26.83;;;2.50;99.90;;;;;;5027578;28;20045;-61
2022/01/11 10:43:07;;;;;;;47.83;28.00;;;2.50;99.90;;;;;;5021553;28;20137;-60
2022/01/11 10:45:39;;;;;;;40.38;24.67;;;2.40;99.90;;;;;;5028739;28;20041;-60
2022/01/11 10:48:07;;;;;;;49.35;27.67;;;2.40;99.90;;;;;;5025017;28;20284;-61
2022/01/11 10:50:37;;;;;;;44.00;27.25;;;2.50;99.90;;;;;;5016271;28;20046;-60
2022/01/11 10:53:10;;;;;;;42.72;26.20;;;2.50;99.90;;;;;;5026495;28;20053;-60
2022/01/11 10:55:36;;;;;;;48.53;26.52;;;2.50;99.90;;;;;;5022715;28;20571;-60
2022/01/11 10:58:11;;;;;;;50.10;27.90;;;2.50;99.90;;;;;;5017354;28;20095;-60
2022/01/11 11:00:44;;;;;;;46.53;27.92;;;2.60;99.90;;;;;;5028820;28;20041;-61
2022/01/11 11:03:14;;;;;;;51.78;27.42;;;2.60;99.90;;;;;;5027641;28;20467;-60
2022/01/11 11:05:50;;;;;;;48.30;26.55;;;2.60;99.90;;;;;;5017496;28;20394;-61
2022/01/11 11:08:22;;;;;;;46.25;25.83;;;2.70;99.90;;;;;;5022460;28;20141;-61
2022/01/11 11:11:00;;;;;;;47.03;26.73;;;2.70;99.90;;;;;;5024644;28;20404;-60
2022/01/11 11:13:32;;;;;;;48.60;27.50;;;2.70;99.90;;;;;;5026288;28;20045;-61
2022/01/11 11:16:09;;;;;;;43.63;25.25;;;2.80;99.90;;;;;;5025246;28;20046;-61
2022/01/11 11:18:39;;;;;;;47.85;27.10;;;2.80;99.90;;;;;;5016954;28;20136;-61
2022/01/11 11:21:21;;;;;;;50.00;26.70;;;2.80;99.90;;;;;;5008865;28;20071;-61
2022/01/11 11:23:53;;;;;;;42.25;24.83;;;2.90;99.90;;;;;;5012546;28;20050;-61
2022/01/11 11:26:20;;;;;;;46.38;25.95;;;2.90;99.90;;;;;;5021737;28;20049;-61
2022/01/11 11:28:45;;;;;;;46.13;26.85;;;3.00;99.90;;;;;;5027638;28;20060;-61
2022/01/11 11:31:11;;;;;;;41.70;26.13;;;3.00;99.90;;;;;;5015722;28;20137;-61
2022/01/11 11:33:39;;;;;;;44.80;26.58;;;3.00;99.90;;;;;;5010836;28;20041;-61
2022/01/11 11:36:06;;;;;;;40.42;24.00;;;3.00;99.90;;;;;;5009476;28;20053;-60
2022/01/11 11:38:34;;;;;;;48.33;25.65;;;3.00;99.90;;;;;;5020986;28;20053;-61
2022/01/11 11:41:01;;;;;;;42.13;25.75;;;3.10;99.90;;;;;;5018558;28;20374;-61
2022/01/11 11:43:28;;;;;;;39.35;24.10;;;3.10;99.90;;;;;;5008060;28;20081;-61
2022/01/11 11:45:53;;;;;;;45.00;25.50;;;3.10;99.90;;;;;;5007660;28;20133;-60
2022/01/11 11:48:25;;;;;;;47.72;25.67;;;3.10;99.90;;;;;;5008601;28;20128;-61
2022/01/11 11:50:57;;;;;;;42.53;25.67;;;3.20;99.90;;;;;;5025012;28;20046;-61
2022/01/11 11:53:34;;;;;;;44.92;25.83;;;3.20;99.90;;;;;;5019025;28;20473;-61
2022/01/11 11:56:18;;;;;;;41.13;23.73;;;3.20;99.90;;;;;;5025301;28;20363;-61
2022/01/11 11:58:55;;;;;;;40.38;24.95;;;3.20;99.90;;;;;;5028674;28;20045;-61
2022/01/11 12:01:31;;;;;;;47.95;23.30;;;3.30;99.90;;;;;;5027934;28;20045;-61
2022/01/11 12:03:56;;;;;;;42.28;22.52;;;3.30;99.90;;;;;;5014928;28;20041;-61
2022/01/11 12:06:31;;;;;;;46.03;22.90;;;3.30;99.90;;;;;;5015266;28;20432;-60
2022/01/11 12:09:04;;;;;;;38.25;24.15;;;3.40;99.90;;;;;;5022734;28;20515;-61
2022/01/11 12:11:42;;;;;;;39.15;22.45;;;3.40;99.90;;;;;;5009530;28;20104;-61
2022/01/11 12:14:30;;;;;;;42.17;22.70;;;3.40;99.90;;;;;;5027449;28;20136;-61
2022/01/11 12:16:57;;;;;;;35.53;21.15;;;3.40;99.90;;;;;;5016654;28;20103;-61
2022/01/11 12:19:41;;;;;;;37.72;22.75;;;3.40;99.90;;;;;;5017157;28;20041;-60
2022/01/11 12:22:07;;;;;;;38.70;22.85;;;3.50;99.90;;;;;;5026657;28;20058;-61
2022/01/11 12:24:40;;;;;;;38.40;23.48;;;3.50;99.90;;;;;;5012352;28;20038;-61
2022/01/11 12:27:10;;;;;;;39.80;22.23;;;3.50;99.90;;;;;;5018666;28;20511;-61
2022/01/11 12:29:37;;;;;;;37.85;21.20;;;3.50;99.90;;;;;;5015465;28;20054;-61
2022/01/11 12:32:06;;;;;;;37.63;22.67;;;3.60;99.90;;;;;;5021305;28;20041;-61
2022/01/11 12:34:48;;;;;;;32.90;20.52;;;3.50;99.90;;;;;;5027303;28;20041;-61
2022/01/11 12:37:24;;;;;;;35.78;23.08;;;3.60;99.90;;;;;;5026378;28;20038;-61
2022/01/11 12:39:59;;;;;;;40.28;22.45;;;3.60;99.90;;;;;;5011192;28;20045;-61